Accueil
METAR-TAF:

METAR-TAF

Aéroports :

Aéroport international de Norwich

Norwich, Angleterre

latitude: 52-38N, longitude: 001-18E, altitude: 14 m

Observation

Le bulletin a été fait il y a 13 minutes, à 22:50 UTC
Vent 6 kt de sud-ouest, variant entre sud/sud-ouest et ouest
Température 16°C
Humidité 77%
Pression 1019 hPa
Visibilité 10 km ou plus

METAR: EGSH 172250Z AUTO 23006KT 210V270 9999 NCD 16/12 Q1019

Heure: 00:03 (23:03 UTC)

Prévision

Le bulletin a été fait il y a 3 heures et 3 minutes, à 20:00 UTC
Prévision valable du 17 à 21 UTC au 17 à 24 UTC
Vent 8 kt de ouest/sud-ouest
Visibilité 10 km ou plus
Quelques nuages à une hauteur de 3500 ft

TAF: EGSH 172000Z 1721/1724 24008KT 9999 FEW035

Observations et prévisions météorologiques de plus de 4000 aéroports (messages METAR et TAF).

Les stations disponibles sont représentées par des disques jaunes et rouges sur la carte.

Passer la souris dessus pour voir le nom de la station.

Cliquer dessus pour voir les observations et prévisions météorologiques.

Pour changer de carte: cliquez sur les boutons verts avec une croix noire pour zoomer, sur le bouton vert avec un tiret pour effectuer un zoom arrière, ou sur les flèches vertes pour les cartes adjacentes.


METAR-TAF: